createdAt,value
2022-10-13T00:01:13.674Z,96.01
2022-10-13T00:03:42.465Z,96.11
2022-10-13T00:06:10.951Z,96.24
2022-10-13T00:08:39.282Z,96.68
2022-10-13T00:11:10.721Z,97.76
2022-10-13T00:13:39.984Z,98.33
2022-10-13T00:16:08.018Z,98.29
2022-10-13T00:18:35.051Z,97.86
2022-10-13T00:21:07.728Z,97.93
2022-10-13T00:23:36.029Z,97.48
2022-10-13T00:26:08.738Z,97.44
2022-10-13T00:28:37.148Z,97.39
2022-10-13T00:31:04.790Z,96.90
2022-10-13T00:33:31.919Z,97.84
2022-10-13T00:35:59.019Z,97.80
2022-10-13T00:38:26.188Z,97.21
2022-10-13T00:40:55.584Z,97.45
2022-10-13T00:43:28.219Z,97.58
2022-10-13T00:45:55.300Z,97.55
2022-10-13T00:48:28.440Z,97.28
2022-10-13T00:50:57.041Z,98.33
2022-10-13T00:53:31.628Z,97.44
2022-10-13T00:55:59.694Z,97.33
2022-10-13T00:58:32.904Z,97.54
2022-10-13T01:01:01.757Z,97.44
2022-10-13T01:03:28.793Z,97.40
2022-10-13T01:05:59.772Z,97.39
2022-10-13T01:08:29.524Z,96.74
2022-10-13T01:11:12.930Z,96.37
2022-10-13T01:13:57.107Z,96.73
2022-10-13T01:16:36.099Z,96.87
2022-10-13T01:19:40.729Z,96.96
2022-10-13T01:22:10.297Z,96.80
2022-10-13T01:24:58.175Z,96.77
2022-10-13T01:27:57.371Z,96.90
2022-10-13T01:30:24.486Z,96.58
2022-10-13T01:33:13.679Z,96.52
2022-10-13T01:36:12.925Z,96.25
2022-10-13T01:38:50.828Z,96.68
2022-10-13T01:41:29.171Z,96.69
2022-10-13T01:44:05.369Z,96.57
2022-10-13T01:46:36.415Z,96.82
2022-10-13T01:49:07.402Z,96.32
2022-10-13T01:51:35.689Z,96.60
2022-10-13T01:54:02.639Z,96.74
2022-10-13T01:56:29.684Z,97.29
2022-10-13T01:58:59.735Z,97.06
2022-10-13T02:01:47.176Z,97.13
2022-10-13T02:04:34.891Z,97.20
2022-10-13T02:07:52.958Z,98.02
2022-10-13T02:10:35.135Z,98.22
2022-10-13T02:13:08.593Z,98.46
2022-10-13T02:15:41.127Z,98.62
2022-10-13T02:18:10.782Z,98.54
2022-10-13T02:20:37.869Z,99.06
2022-10-13T02:23:12.287Z,99.81
2022-10-13T02:25:39.962Z,99.11
2022-10-13T02:28:07.782Z,98.93
2022-10-13T02:30:43.316Z,98.58
2022-10-13T02:33:11.087Z,98.29
2022-10-13T02:35:39.007Z,97.97
2022-10-13T02:38:05.999Z,98.44
2022-10-13T02:40:32.972Z,98.62
2022-10-13T02:42:59.900Z,99.25
2022-10-13T02:45:27.034Z,99.21
2022-10-13T02:47:55.422Z,98.71
2022-10-13T02:50:22.414Z,98.71
2022-10-13T02:52:50.499Z,98.43
2022-10-13T02:55:17.592Z,97.79
2022-10-13T02:57:46.026Z,97.75
2022-10-13T03:00:13.848Z,97.41
2022-10-13T03:02:40.902Z,98.00
2022-10-13T03:05:08.741Z,98.27
2022-10-13T03:07:35.800Z,98.03
2022-10-13T03:10:02.841Z,97.92
2022-10-13T03:12:30.087Z,98.09
2022-10-13T03:14:57.561Z,98.09
2022-10-13T03:17:24.434Z,97.81
2022-10-13T03:19:52.057Z,98.27
2022-10-13T03:22:19.479Z,98.32
2022-10-13T03:24:46.870Z,98.40
2022-10-13T03:27:14.149Z,98.62
2022-10-13T03:29:41.461Z,98.28
2022-10-13T03:32:08.342Z,97.84
2022-10-13T03:34:35.902Z,98.04
2022-10-13T03:37:02.793Z,98.29
2022-10-13T03:39:33.912Z,98.31
2022-10-13T03:42:01.310Z,98.11
2022-10-13T03:44:28.220Z,98.20
2022-10-13T03:46:55.344Z,98.31
2022-10-13T03:49:22.595Z,98.30
2022-10-13T03:51:49.749Z,98.29
2022-10-13T03:54:16.674Z,99.00
2022-10-13T03:56:47.031Z,99.82
2022-10-13T03:59:17.285Z,99.79
2022-10-13T04:01:44.236Z,100.00
2022-10-13T04:04:13.248Z,100.00
2022-10-13T04:06:42.282Z,100.00
2022-10-13T04:09:09.805Z,100.00
2022-10-13T04:11:37.102Z,100.00
2022-10-13T04:14:04.442Z,100.00
2022-10-13T04:16:31.999Z,100.00
2022-10-13T04:19:05.310Z,100.00
2022-10-13T04:21:34.909Z,100.00
2022-10-13T04:24:02.692Z,99.96
2022-10-13T04:26:32.886Z,100.00
2022-10-13T04:29:08.859Z,100.00
2022-10-13T04:31:35.994Z,100.00
2022-10-13T04:34:03.267Z,99.98
2022-10-13T04:36:30.860Z,100.00
2022-10-13T04:38:57.883Z,100.00
2022-10-13T04:41:25.925Z,100.00
2022-10-13T04:43:54.445Z,100.00
2022-10-13T04:46:26.714Z,100.00
2022-10-13T04:48:56.207Z,100.00
2022-10-13T04:51:29.245Z,100.00
2022-10-13T04:53:58.029Z,100.00
2022-10-13T04:56:25.260Z,100.00
2022-10-13T04:58:52.375Z,100.00
2022-10-13T05:01:22.594Z,100.00
2022-10-13T05:03:59.331Z,100.00
2022-10-13T05:06:33.439Z,100.00
2022-10-13T05:09:01.295Z,100.00
2022-10-13T05:11:29.622Z,100.00
2022-10-13T05:13:57.656Z,100.00
2022-10-13T05:16:25.907Z,100.00
2022-10-13T05:18:55.092Z,100.00
2022-10-13T05:21:25.012Z,100.00
2022-10-13T05:23:55.982Z,100.00
2022-10-13T05:26:29.203Z,100.00
2022-10-13T05:28:57.072Z,100.00
2022-10-13T05:31:27.529Z,100.00
2022-10-13T05:33:57.135Z,100.00
2022-10-13T05:36:27.066Z,100.00
2022-10-13T05:38:56.602Z,100.00
2022-10-13T05:41:25.392Z,100.00
2022-10-13T05:43:59.945Z,100.00
2022-10-13T05:46:27.273Z,100.00
2022-10-13T05:48:54.655Z,99.99
2022-10-13T05:51:32.427Z,100.00
2022-10-13T05:54:14.339Z,100.00
2022-10-13T05:56:56.581Z,100.00
2022-10-13T05:59:27.582Z,100.00
2022-10-13T06:01:55.164Z,99.64
2022-10-13T06:04:37.721Z,99.78
2022-10-13T06:07:05.407Z,99.56
2022-10-13T06:09:38.202Z,99.69
2022-10-13T06:12:10.135Z,99.98
2022-10-13T06:14:37.427Z,100.00
2022-10-13T06:17:07.338Z,100.00
2022-10-13T06:19:34.811Z,100.00
2022-10-13T06:22:07.681Z,100.00
2022-10-13T06:24:35.021Z,99.69
2022-10-13T06:27:03.986Z,99.96
2022-10-13T06:29:32.999Z,100.00
2022-10-13T06:31:59.897Z,100.00
2022-10-13T06:34:26.888Z,100.00
2022-10-13T06:36:53.762Z,99.76
2022-10-13T06:39:21.343Z,99.87
2022-10-13T06:41:49.916Z,100.00
2022-10-13T06:44:16.836Z,99.76
2022-10-13T06:46:43.862Z,99.81
2022-10-13T06:49:10.836Z,100.00
2022-10-13T06:51:37.736Z,99.98
2022-10-13T06:54:04.930Z,100.00
2022-10-13T06:56:33.562Z,99.64
2022-10-13T06:59:05.522Z,99.38
2022-10-13T07:01:40.577Z,99.83
2022-10-13T07:04:12.616Z,100.00
2022-10-13T07:06:39.514Z,99.85
2022-10-13T07:09:07.723Z,99.81
2022-10-13T07:11:35.521Z,99.65
2022-10-13T07:14:04.862Z,100.00
2022-10-13T07:16:32.024Z,100.00
2022-10-13T07:18:58.979Z,100.00
2022-10-13T07:21:26.420Z,100.00
2022-10-13T07:23:53.393Z,100.00
2022-10-13T07:26:20.829Z,100.00
2022-10-13T07:28:48.000Z,100.00
2022-10-13T07:31:17.956Z,100.00
2022-10-13T07:33:47.559Z,100.00
2022-10-13T07:36:17.884Z,100.00
2022-10-13T07:38:45.154Z,99.85
2022-10-13T07:41:13.718Z,99.33
2022-10-13T07:43:41.829Z,99.00
2022-10-13T07:46:12.210Z,98.87
2022-10-13T07:48:39.212Z,98.61
2022-10-13T07:51:08.149Z,99.10
2022-10-13T07:53:35.605Z,98.67
2022-10-13T07:56:04.586Z,99.23
2022-10-13T07:58:31.582Z,98.85
2022-10-13T08:01:02.480Z,98.93
2022-10-13T08:03:30.420Z,98.61
2022-10-13T08:06:00.089Z,99.15
2022-10-13T08:08:28.078Z,99.15
2022-10-13T08:10:55.655Z,100.00
2022-10-13T08:13:23.685Z,100.00
2022-10-13T08:15:50.589Z,100.00
2022-10-13T08:18:17.561Z,99.44
2022-10-13T08:20:46.122Z,98.59
2022-10-13T08:23:13.773Z,99.41
2022-10-13T08:25:48.631Z,99.96
2022-10-13T08:28:26.047Z,97.79
2022-10-13T08:30:57.925Z,97.45
2022-10-13T08:33:25.982Z,96.88
2022-10-13T08:35:53.416Z,96.91
2022-10-13T08:38:20.533Z,96.69
2022-10-13T08:40:49.130Z,96.92
2022-10-13T08:43:20.355Z,96.74
2022-10-13T08:45:51.220Z,96.32
2022-10-13T08:48:22.621Z,96.08
2022-10-13T08:50:53.747Z,96.40
2022-10-13T08:53:37.020Z,95.77
2022-10-13T08:56:19.792Z,96.15
2022-10-13T08:58:49.103Z,95.02
2022-10-13T09:01:25.653Z,95.55
2022-10-13T09:04:11.265Z,94.43
2022-10-13T09:06:46.520Z,94.47
2022-10-13T09:09:16.554Z,94.34
2022-10-13T09:11:49.515Z,95.63
2022-10-13T09:14:30.195Z,96.10
2022-10-13T09:17:17.830Z,95.46
2022-10-13T09:19:57.088Z,93.57
2022-10-13T09:22:25.603Z,93.92
2022-10-13T09:25:12.888Z,92.38
2022-10-13T09:27:53.251Z,91.85
2022-10-13T09:30:42.031Z,93.08
2022-10-13T09:33:09.513Z,94.02
2022-10-13T09:35:38.100Z,95.61
2022-10-13T09:38:20.248Z,93.92
2022-10-13T09:41:06.925Z,92.92
2022-10-13T09:43:56.940Z,92.30
2022-10-13T09:46:36.371Z,92.76
2022-10-13T09:49:25.414Z,92.26
2022-10-13T09:51:52.723Z,92.11
2022-10-13T09:54:33.672Z,91.81
2022-10-13T09:57:06.438Z,91.04
2022-10-13T09:59:50.167Z,91.63
2022-10-13T10:02:47.840Z,90.04
2022-10-13T10:05:25.213Z,89.51
2022-10-13T10:08:04.563Z,88.54
2022-10-13T10:10:39.874Z,88.67
2022-10-13T10:13:12.884Z,88.23
2022-10-13T10:16:02.882Z,86.06
2022-10-13T10:18:53.845Z,85.52
2022-10-13T10:21:41.933Z,84.91
2022-10-13T10:24:29.925Z,85.29
2022-10-13T10:27:01.812Z,84.15
2022-10-13T10:29:47.001Z,82.44
2022-10-13T10:32:36.007Z,81.94
2022-10-13T10:35:12.458Z,82.15
2022-10-13T10:37:39.402Z,81.97
2022-10-13T10:40:40.253Z,80.57
2022-10-13T10:43:35.112Z,80.78
2022-10-13T10:46:02.499Z,82.28
2022-10-13T10:48:38.006Z,81.82
2022-10-13T10:51:12.891Z,81.45
2022-10-13T10:53:43.533Z,82.29
2022-10-13T10:56:27.939Z,82.05
2022-10-13T10:59:08.880Z,82.07
2022-10-13T11:01:36.923Z,81.66
2022-10-13T11:04:31.520Z,80.78
2022-10-13T11:06:58.784Z,81.67
2022-10-13T11:09:43.941Z,81.82
2022-10-13T11:12:20.025Z,80.99
2022-10-13T11:15:20.069Z,81.14
2022-10-13T11:17:47.700Z,82.27
2022-10-13T11:20:21.216Z,81.91
2022-10-13T11:23:00.641Z,82.76
2022-10-13T11:25:41.734Z,82.58
2022-10-13T11:28:21.707Z,81.68
2022-10-13T11:30:50.756Z,82.48
2022-10-13T11:33:41.121Z,81.29
2022-10-13T11:36:30.956Z,81.34
2022-10-13T11:39:27.878Z,81.18
2022-10-13T11:42:12.971Z,80.98
2022-10-13T11:44:51.317Z,80.67
2022-10-13T11:47:57.210Z,79.70
2022-10-13T11:50:46.384Z,79.69
2022-10-13T11:53:19.081Z,79.81
2022-10-13T11:55:56.611Z,79.58
2022-10-13T11:58:31.669Z,78.85
2022-10-13T12:01:03.281Z,79.17
2022-10-13T12:03:32.490Z,78.46
2022-10-13T12:06:17.428Z,78.62
2022-10-13T12:08:49.483Z,78.49
2022-10-13T12:11:26.000Z,79.06
2022-10-13T12:13:53.583Z,80.06
2022-10-13T12:16:21.842Z,79.49
2022-10-13T12:18:50.811Z,80.36
2022-10-13T12:21:21.223Z,80.41
2022-10-13T12:23:52.293Z,81.95
2022-10-13T12:26:22.990Z,81.38
2022-10-13T12:28:58.562Z,80.96
2022-10-13T12:31:38.090Z,81.06
2022-10-13T12:34:05.140Z,81.22
2022-10-13T12:36:35.521Z,81.35
2022-10-13T12:39:10.759Z,82.07
2022-10-13T12:41:43.202Z,81.76
2022-10-13T12:44:17.301Z,82.45
2022-10-13T12:46:46.804Z,82.27
2022-10-13T12:49:17.782Z,81.72
2022-10-13T12:51:49.115Z,82.54
2022-10-13T12:54:24.133Z,82.14
2022-10-13T12:56:56.093Z,83.35
2022-10-13T12:59:25.084Z,82.65
2022-10-13T13:02:01.325Z,83.47
2022-10-13T13:04:46.733Z,83.11
2022-10-13T13:07:33.798Z,82.79
2022-10-13T13:10:00.667Z,83.72
2022-10-13T13:12:29.128Z,83.45
2022-10-13T13:14:58.766Z,83.62
2022-10-13T13:20:31.118Z,84.09
2022-10-13T13:22:59.082Z,83.14
2022-10-13T13:25:26.942Z,82.21
2022-10-13T13:27:54.006Z,81.99
2022-10-13T13:30:23.036Z,81.69
2022-10-13T13:32:50.845Z,81.69
2022-10-13T13:35:18.971Z,81.59
2022-10-13T13:37:49.970Z,81.55
2022-10-13T13:40:23.033Z,81.10
2022-10-13T13:42:51.277Z,81.22
2022-10-13T13:45:22.015Z,81.26
2022-10-13T13:47:49.974Z,81.81
2022-10-13T13:50:20.732Z,81.41
2022-10-13T13:52:56.679Z,81.18
2022-10-13T13:55:24.525Z,81.49
2022-10-13T13:57:51.903Z,81.89
2022-10-13T14:00:19.556Z,81.20
2022-10-13T14:02:53.634Z,81.05
2022-10-13T14:05:20.850Z,80.91
2022-10-13T14:07:47.898Z,81.47
2022-10-13T14:10:14.870Z,81.69
2022-10-13T14:12:41.828Z,81.47
2022-10-13T14:15:09.513Z,81.62
2022-10-13T14:17:36.456Z,81.90
2022-10-13T14:20:03.543Z,82.18
2022-10-13T14:22:33.230Z,81.63
2022-10-13T14:25:00.156Z,81.92
2022-10-13T14:27:27.139Z,82.18
2022-10-13T14:29:55.836Z,82.12
2022-10-13T14:32:23.256Z,82.16
2022-10-13T14:34:50.403Z,82.30
2022-10-13T14:37:22.150Z,82.23
2022-10-13T14:39:51.946Z,82.14
2022-10-13T14:42:19.174Z,82.17
2022-10-13T14:44:46.086Z,82.24
2022-10-13T14:47:13.188Z,82.28
2022-10-13T14:49:41.160Z,82.34
2022-10-13T14:52:09.169Z,82.83
2022-10-13T14:54:37.419Z,83.10
2022-10-13T14:57:08.626Z,83.30
2022-10-13T14:59:36.111Z,83.19
2022-10-13T15:02:03.520Z,83.29
2022-10-13T15:04:30.804Z,84.04
2022-10-13T15:06:58.400Z,84.17
2022-10-13T15:09:38.644Z,84.00
2022-10-13T15:12:14.358Z,84.40
2022-10-13T15:14:41.233Z,84.54
2022-10-13T15:17:08.447Z,84.85
2022-10-13T15:19:36.219Z,85.35
2022-10-13T15:22:03.604Z,85.10
2022-10-13T15:24:30.475Z,85.51
2022-10-13T15:27:02.237Z,85.50
2022-10-13T15:29:29.899Z,85.92
2022-10-13T15:32:18.865Z,85.90
2022-10-13T15:34:58.258Z,86.28
2022-10-13T15:37:27.922Z,86.89
2022-10-13T15:39:57.522Z,86.50
2022-10-13T15:42:25.143Z,86.68
2022-10-13T15:47:39.617Z,88.31
2022-10-13T15:50:07.398Z,87.79
2022-10-13T15:52:40.043Z,88.82
2022-10-13T15:55:09.736Z,90.30
2022-10-13T15:57:36.655Z,90.30
2022-10-13T16:00:06.698Z,91.00
2022-10-13T16:02:40.646Z,92.67
2022-10-13T16:05:10.704Z,92.33
2022-10-13T16:07:40.178Z,92.41
2022-10-13T16:10:08.714Z,91.78
2022-10-13T16:12:36.062Z,91.54
2022-10-13T16:15:03.787Z,91.52
2022-10-13T16:17:31.069Z,91.79
2022-10-13T16:19:58.001Z,92.73
2022-10-13T16:22:25.493Z,92.48
2022-10-13T16:24:52.533Z,93.08
2022-10-13T16:27:19.612Z,93.76
2022-10-13T16:29:47.471Z,94.11
2022-10-13T16:32:14.576Z,94.17
2022-10-13T16:34:41.543Z,94.28
2022-10-13T16:37:08.485Z,94.54
2022-10-13T16:39:39.939Z,94.77
2022-10-13T16:42:09.587Z,95.22
2022-10-13T16:44:36.537Z,95.07
2022-10-13T16:47:05.047Z,95.20
2022-10-13T16:49:32.338Z,95.47
2022-10-13T16:51:59.620Z,95.31
2022-10-13T16:54:26.593Z,96.20
2022-10-13T16:57:17.285Z,96.00
2022-10-13T16:59:52.234Z,96.36
2022-10-13T17:02:21.510Z,96.44
2022-10-13T17:04:48.422Z,97.07
2022-10-13T17:07:15.397Z,96.63
2022-10-13T17:09:43.515Z,97.31
2022-10-13T17:12:10.454Z,97.21
2022-10-13T17:14:38.172Z,97.22
2022-10-13T17:17:05.687Z,97.37
2022-10-13T17:19:33.200Z,97.36
2022-10-13T17:22:00.055Z,97.71
2022-10-13T17:24:27.852Z,97.89
2022-10-13T17:26:54.715Z,97.81
2022-10-13T17:29:21.907Z,98.28
2022-10-13T17:31:49.285Z,98.41
2022-10-13T17:34:19.076Z,98.60
2022-10-13T17:36:45.955Z,98.57
2022-10-13T17:39:14.003Z,98.50
2022-10-13T17:41:41.394Z,98.94
2022-10-13T17:44:08.569Z,98.73
2022-10-13T17:46:38.287Z,98.91
2022-10-13T17:49:09.422Z,99.50
2022-10-13T17:51:36.951Z,99.53
2022-10-13T17:54:04.784Z,99.50
2022-10-13T17:56:31.990Z,100.00
2022-10-13T17:59:00.650Z,99.91
2022-10-13T18:01:34.280Z,99.74
2022-10-13T18:04:07.214Z,99.98
2022-10-13T18:06:38.489Z,100.00
2022-10-13T18:09:12.095Z,100.00
2022-10-13T18:11:39.920Z,100.00
2022-10-13T18:14:07.223Z,100.00
2022-10-13T18:16:36.321Z,100.00
2022-10-13T18:19:04.904Z,100.00
2022-10-13T18:21:32.409Z,100.00
2022-10-13T18:24:02.325Z,100.00
2022-10-13T18:26:37.434Z,100.00
2022-10-13T18:29:07.423Z,100.00
2022-10-13T18:31:36.749Z,100.00
2022-10-13T18:34:06.737Z,100.00
2022-10-13T18:36:37.107Z,100.00
2022-10-13T18:39:10.493Z,100.00
2022-10-13T18:41:39.903Z,100.00
2022-10-13T18:44:07.322Z,100.00
2022-10-13T18:46:36.176Z,100.00
2022-10-13T18:49:08.880Z,100.00
2022-10-13T18:51:39.377Z,100.00
2022-10-13T18:54:07.423Z,100.00
2022-10-13T18:57:04.629Z,100.00
2022-10-13T18:59:38.789Z,100.00
2022-10-13T19:02:15.105Z,100.00
2022-10-13T19:05:21.079Z,100.00
2022-10-13T19:15:03.600Z,100.00
2022-10-13T19:17:30.582Z,100.00
2022-10-13T19:19:57.497Z,100.00
2022-10-13T19:22:25.085Z,100.00
2022-10-13T19:24:52.289Z,100.00
2022-10-13T19:27:20.081Z,100.00
2022-10-13T19:29:47.377Z,100.00
2022-10-13T19:32:14.774Z,100.00
2022-10-13T19:34:41.848Z,100.00
2022-10-13T19:37:12.454Z,100.00
2022-10-13T19:39:39.673Z,100.00
2022-10-13T19:42:06.624Z,100.00
2022-10-13T19:44:33.666Z,100.00
2022-10-13T19:47:00.715Z,100.00
2022-10-13T19:49:28.131Z,100.00
2022-10-13T19:51:56.047Z,100.00
2022-10-13T19:54:23.394Z,100.00
2022-10-13T19:56:51.268Z,100.00
2022-10-13T19:59:18.931Z,100.00
2022-10-13T20:01:46.785Z,100.00
2022-10-13T20:04:16.499Z,100.00
2022-10-13T20:06:44.945Z,100.00
2022-10-13T20:09:12.318Z,100.00
2022-10-13T20:11:39.475Z,100.00
2022-10-13T20:14:06.521Z,100.00
2022-10-13T20:16:33.608Z,100.00
2022-10-13T20:19:01.560Z,100.00
2022-10-13T20:21:29.649Z,100.00
2022-10-13T20:23:56.975Z,100.00
2022-10-13T20:26:27.231Z,100.00
2022-10-13T20:28:54.898Z,100.00
2022-10-13T20:31:22.755Z,100.00
2022-10-13T20:33:58.198Z,100.00
2022-10-13T20:36:32.651Z,100.00
2022-10-13T20:39:05.562Z,100.00
2022-10-13T20:41:33.580Z,100.00
2022-10-13T20:44:01.859Z,100.00
2022-10-13T20:46:31.187Z,100.00
2022-10-13T20:49:13.768Z,100.00
2022-10-13T20:51:42.868Z,100.00
2022-10-13T20:54:11.450Z,100.00
2022-10-13T20:56:38.510Z,100.00
2022-10-13T20:59:09.054Z,100.00
2022-10-13T21:01:37.095Z,100.00
2022-10-13T21:04:04.701Z,100.00
2022-10-13T21:06:31.685Z,100.00
2022-10-13T21:09:00.477Z,100.00
2022-10-13T21:11:27.496Z,100.00
2022-10-13T21:13:54.483Z,100.00
2022-10-13T21:16:28.560Z,100.00
2022-10-13T21:18:58.073Z,100.00
2022-10-13T21:21:33.075Z,100.00
2022-10-13T21:24:03.640Z,100.00
2022-10-13T21:26:32.415Z,100.00
2022-10-13T21:29:00.616Z,100.00
2022-10-13T21:31:28.553Z,100.00
2022-10-13T21:33:56.961Z,100.00
2022-10-13T21:36:29.843Z,100.00
2022-10-13T21:38:59.745Z,100.00
2022-10-13T21:41:27.748Z,100.00
2022-10-13T21:43:55.643Z,100.00
2022-10-13T21:46:25.241Z,100.00
2022-10-13T21:48:58.936Z,100.00
2022-10-13T21:51:29.665Z,100.00
2022-10-13T21:54:00.109Z,100.00
2022-10-13T21:56:29.069Z,100.00
2022-10-13T21:58:56.448Z,100.00
2022-10-13T22:01:24.830Z,100.00
2022-10-13T22:03:57.881Z,100.00
2022-10-13T22:06:29.971Z,100.00
2022-10-13T22:08:59.213Z,100.00
2022-10-13T22:11:28.141Z,100.00
2022-10-13T22:13:59.282Z,100.00
2022-10-13T22:16:33.364Z,100.00
2022-10-13T22:19:00.646Z,100.00
2022-10-13T22:21:30.702Z,100.00
2022-10-13T22:24:02.862Z,100.00
2022-10-13T22:26:32.566Z,100.00
2022-10-13T22:29:02.311Z,100.00
2022-10-13T22:31:30.941Z,100.00
2022-10-13T22:33:58.974Z,100.00
2022-10-13T22:36:27.732Z,100.00
2022-10-13T22:38:57.614Z,100.00
2022-10-13T22:41:25.648Z,100.00
2022-10-13T22:43:54.926Z,100.00
2022-10-13T22:46:26.511Z,100.00
2022-10-13T22:48:53.784Z,100.00
2022-10-13T22:51:22.301Z,100.00
2022-10-13T22:53:50.549Z,100.00
2022-10-13T22:56:26.356Z,100.00
2022-10-13T22:58:59.562Z,100.00
2022-10-13T23:01:27.733Z,100.00
2022-10-13T23:03:57.273Z,100.00
2022-10-13T23:06:30.054Z,100.00
2022-10-13T23:09:00.652Z,100.00
2022-10-13T23:11:27.899Z,100.00
2022-10-13T23:13:55.773Z,100.00
2022-10-13T23:16:24.789Z,100.00
2022-10-13T23:18:52.238Z,100.00
2022-10-13T23:21:28.916Z,100.00
2022-10-13T23:24:01.512Z,100.00
2022-10-13T23:26:29.677Z,100.00
2022-10-13T23:28:57.640Z,100.00
2022-10-13T23:31:26.050Z,100.00
2022-10-13T23:33:53.277Z,100.00
2022-10-13T23:36:23.216Z,100.00
2022-10-13T23:39:02.509Z,100.00
2022-10-13T23:41:29.660Z,100.00
2022-10-13T23:43:56.829Z,100.00
2022-10-13T23:46:24.382Z,100.00
2022-10-13T23:48:51.535Z,100.00
2022-10-13T23:51:21.783Z,100.00
2022-10-13T23:53:49.141Z,100.00
2022-10-13T23:56:17.668Z,100.00
2022-10-13T23:58:45.122Z,100.00
